sensor_id;sensor_type;location;lat;lon;timestamp;P1;durP1;ratioP1;P2;durP2;ratioP2
76552;SDS011;65395;53.168;18.156;2023-03-16T00:02:21;24.80;;;9.30;;
76552;SDS011;65395;53.168;18.156;2023-03-16T00:04:49;25.00;;;9.20;;
76552;SDS011;65395;53.168;18.156;2023-03-16T00:07:16;30.60;;;10.00;;
76552;SDS011;65395;53.168;18.156;2023-03-16T00:09:43;21.00;;;9.10;;
76552;SDS011;65395;53.168;18.156;2023-03-16T00:12:12;26.70;;;8.80;;
76552;SDS011;65395;53.168;18.156;2023-03-16T00:14:42;26.20;;;9.60;;
76552;SDS011;65395;53.168;18.156;2023-03-16T00:17:11;22.70;;;9.50;;
76552;SDS011;65395;53.168;18.156;2023-03-16T00:19:44;25.30;;;9.90;;
76552;SDS011;65395;53.168;18.156;2023-03-16T00:22:13;28.30;;;10.10;;
76552;SDS011;65395;53.168;18.156;2023-03-16T00:24:41;23.70;;;9.40;;
76552;SDS011;65395;53.168;18.156;2023-03-16T00:27:09;23.20;;;9.70;;
76552;SDS011;65395;53.168;18.156;2023-03-16T00:29:42;23.00;;;9.40;;
76552;SDS011;65395;53.168;18.156;2023-03-16T00:32:15;22.80;;;10.40;;
76552;SDS011;65395;53.168;18.156;2023-03-16T00:34:44;22.90;;;10.30;;
76552;SDS011;65395;53.168;18.156;2023-03-16T00:37:12;31.00;;;11.70;;
76552;SDS011;65395;53.168;18.156;2023-03-16T00:39:41;30.80;;;11.50;;
76552;SDS011;65395;53.168;18.156;2023-03-16T00:42:13;26.80;;;10.90;;
76552;SDS011;65395;53.168;18.156;2023-03-16T00:44:41;29.40;;;11.90;;
76552;SDS011;65395;53.168;18.156;2023-03-16T00:47:09;27.70;;;11.10;;
76552;SDS011;65395;53.168;18.156;2023-03-16T00:49:41;24.20;;;10.40;;
76552;SDS011;65395;53.168;18.156;2023-03-16T00:52:10;25.10;;;10.10;;
76552;SDS011;65395;53.168;18.156;2023-03-16T00:54:41;30.40;;;10.90;;
76552;SDS011;65395;53.168;18.156;2023-03-16T00:57:10;22.40;;;9.50;;
76552;SDS011;65395;53.168;18.156;2023-03-16T00:59:39;21.80;;;10.60;;
76552;SDS011;65395;53.168;18.156;2023-03-16T01:02:07;25.40;;;10.40;;
76552;SDS011;65395;53.168;18.156;2023-03-16T01:04:35;22.20;;;10.10;;
76552;SDS011;65395;53.168;18.156;2023-03-16T01:07:03;21.90;;;9.40;;
76552;SDS011;65395;53.168;18.156;2023-03-16T01:09:31;24.00;;;9.70;;
76552;SDS011;65395;53.168;18.156;2023-03-16T01:12:03;25.40;;;9.90;;
76552;SDS011;65395;53.168;18.156;2023-03-16T01:14:32;26.10;;;9.70;;
76552;SDS011;65395;53.168;18.156;2023-03-16T01:17:00;22.70;;;9.90;;
76552;SDS011;65395;53.168;18.156;2023-03-16T01:19:28;22.40;;;9.80;;
76552;SDS011;65395;53.168;18.156;2023-03-16T01:21:59;23.10;;;10.20;;
76552;SDS011;65395;53.168;18.156;2023-03-16T01:24:25;22.10;;;9.20;;
76552;SDS011;65395;53.168;18.156;2023-03-16T01:26:52;21.60;;;9.50;;
76552;SDS011;65395;53.168;18.156;2023-03-16T01:29:20;20.40;;;8.90;;
76552;SDS011;65395;53.168;18.156;2023-03-16T01:31:47;20.70;;;9.50;;
76552;SDS011;65395;53.168;18.156;2023-03-16T01:34:16;22.70;;;9.10;;
76552;SDS011;65395;53.168;18.156;2023-03-16T01:36:46;29.40;;;10.00;;
76552;SDS011;65395;53.168;18.156;2023-03-16T01:39:14;23.20;;;9.10;;
76552;SDS011;65395;53.168;18.156;2023-03-16T01:41:45;21.80;;;8.60;;
76552;SDS011;65395;53.168;18.156;2023-03-16T01:44:14;22.30;;;8.70;;
76552;SDS011;65395;53.168;18.156;2023-03-16T01:46:43;24.10;;;8.70;;
76552;SDS011;65395;53.168;18.156;2023-03-16T01:49:13;18.60;;;8.40;;
76552;SDS011;65395;53.168;18.156;2023-03-16T01:51:52;19.50;;;7.70;;
76552;SDS011;65395;53.168;18.156;2023-03-16T01:54:29;18.40;;;7.40;;
76552;SDS011;65395;53.168;18.156;2023-03-16T01:57:03;21.20;;;8.40;;
76552;SDS011;65395;53.168;18.156;2023-03-16T01:59:36;16.60;;;7.00;;
76552;SDS011;65395;53.168;18.156;2023-03-16T02:02:10;18.70;;;7.50;;
76552;SDS011;65395;53.168;18.156;2023-03-16T02:04:42;20.20;;;7.90;;
76552;SDS011;65395;53.168;18.156;2023-03-16T02:07:21;18.10;;;8.10;;
76552;SDS011;65395;53.168;18.156;2023-03-16T02:09:52;23.60;;;8.30;;
76552;SDS011;65395;53.168;18.156;2023-03-16T02:12:22;15.50;;;7.70;;
76552;SDS011;65395;53.168;18.156;2023-03-16T02:14:53;13.70;;;6.20;;
76552;SDS011;65395;53.168;18.156;2023-03-16T02:17:21;19.90;;;6.70;;
76552;SDS011;65395;53.168;18.156;2023-03-16T02:22:48;18.70;;;6.80;;
76552;SDS011;65395;53.168;18.156;2023-03-16T02:25:23;16.50;;;6.40;;
76552;SDS011;65395;53.168;18.156;2023-03-16T02:27:59;18.40;;;7.10;;
76552;SDS011;65395;53.168;18.156;2023-03-16T02:30:34;12.70;;;6.10;;
76552;SDS011;65395;53.168;18.156;2023-03-16T02:33:02;19.60;;;7.30;;
76552;SDS011;65395;53.168;18.156;2023-03-16T02:35:30;12.40;;;6.40;;
76552;SDS011;65395;53.168;18.156;2023-03-16T02:37:57;16.40;;;6.40;;
76552;SDS011;65395;53.168;18.156;2023-03-16T02:40:29;15.00;;;6.60;;
76552;SDS011;65395;53.168;18.156;2023-03-16T02:45:45;18.20;;;6.60;;
76552;SDS011;65395;53.168;18.156;2023-03-16T02:48:25;17.40;;;7.60;;
76552;SDS011;65395;53.168;18.156;2023-03-16T02:50:58;17.50;;;7.10;;
76552;SDS011;65395;53.168;18.156;2023-03-16T02:53:26;14.40;;;6.70;;
76552;SDS011;65395;53.168;18.156;2023-03-16T02:55:54;14.60;;;7.00;;
76552;SDS011;65395;53.168;18.156;2023-03-16T02:58:21;14.40;;;6.90;;
76552;SDS011;65395;53.168;18.156;2023-03-16T03:00:48;15.60;;;6.90;;
76552;SDS011;65395;53.168;18.156;2023-03-16T03:03:15;17.20;;;6.80;;
76552;SDS011;65395;53.168;18.156;2023-03-16T03:05:42;13.70;;;7.30;;
76552;SDS011;65395;53.168;18.156;2023-03-16T03:08:09;16.00;;;6.60;;
76552;SDS011;65395;53.168;18.156;2023-03-16T03:10:36;16.80;;;6.60;;
76552;SDS011;65395;53.168;18.156;2023-03-16T03:13:04;19.00;;;6.20;;
76552;SDS011;65395;53.168;18.156;2023-03-16T03:15:33;16.50;;;6.90;;
76552;SDS011;65395;53.168;18.156;2023-03-16T03:18:05;17.10;;;6.70;;
76552;SDS011;65395;53.168;18.156;2023-03-16T03:20:32;15.00;;;6.20;;
76552;SDS011;65395;53.168;18.156;2023-03-16T03:22:59;17.20;;;6.70;;
76552;SDS011;65395;53.168;18.156;2023-03-16T03:25:26;13.40;;;6.00;;
76552;SDS011;65395;53.168;18.156;2023-03-16T03:27:53;17.80;;;6.30;;
76552;SDS011;65395;53.168;18.156;2023-03-16T03:30:21;14.00;;;6.10;;
76552;SDS011;65395;53.168;18.156;2023-03-16T03:32:50;14.70;;;6.10;;
76552;SDS011;65395;53.168;18.156;2023-03-16T03:35:19;12.60;;;5.80;;
76552;SDS011;65395;53.168;18.156;2023-03-16T03:37:46;16.10;;;5.80;;
76552;SDS011;65395;53.168;18.156;2023-03-16T03:40:15;13.10;;;6.20;;
76552;SDS011;65395;53.168;18.156;2023-03-16T03:42:46;15.60;;;5.80;;
76552;SDS011;65395;53.168;18.156;2023-03-16T03:45:13;16.00;;;6.20;;
76552;SDS011;65395;53.168;18.156;2023-03-16T03:47:41;14.00;;;6.20;;
76552;SDS011;65395;53.168;18.156;2023-03-16T03:50:11;14.20;;;6.70;;
76552;SDS011;65395;53.168;18.156;2023-03-16T03:52:48;14.00;;;7.00;;
76552;SDS011;65395;53.168;18.156;2023-03-16T03:55:15;16.50;;;6.40;;
76552;SDS011;65395;53.168;18.156;2023-03-16T03:57:41;14.10;;;6.40;;
76552;SDS011;65395;53.168;18.156;2023-03-16T04:00:08;19.10;;;7.60;;
76552;SDS011;65395;53.168;18.156;2023-03-16T04:02:39;16.20;;;7.50;;
76552;SDS011;65395;53.168;18.156;2023-03-16T04:05:10;16.70;;;7.50;;
76552;SDS011;65395;53.168;18.156;2023-03-16T04:07:36;14.00;;;7.10;;
76552;SDS011;65395;53.168;18.156;2023-03-16T04:10:06;14.60;;;6.80;;
76552;SDS011;65395;53.168;18.156;2023-03-16T04:12:38;16.70;;;7.00;;
76552;SDS011;65395;53.168;18.156;2023-03-16T04:15:05;15.90;;;7.20;;
76552;SDS011;65395;53.168;18.156;2023-03-16T04:17:36;16.10;;;6.90;;
76552;SDS011;65395;53.168;18.156;2023-03-16T04:20:05;16.10;;;7.10;;
76552;SDS011;65395;53.168;18.156;2023-03-16T04:22:40;13.30;;;6.70;;
76552;SDS011;65395;53.168;18.156;2023-03-16T04:25:09;13.60;;;6.50;;
76552;SDS011;65395;53.168;18.156;2023-03-16T04:27:37;14.60;;;6.40;;
76552;SDS011;65395;53.168;18.156;2023-03-16T04:30:05;15.50;;;7.30;;
76552;SDS011;65395;53.168;18.156;2023-03-16T04:32:37;15.10;;;6.60;;
76552;SDS011;65395;53.168;18.156;2023-03-16T04:35:05;16.30;;;7.10;;
76552;SDS011;65395;53.168;18.156;2023-03-16T04:37:41;17.50;;;7.10;;
76552;SDS011;65395;53.168;18.156;2023-03-16T04:40:08;16.00;;;7.40;;
76552;SDS011;65395;53.168;18.156;2023-03-16T04:42:45;18.20;;;7.60;;
76552;SDS011;65395;53.168;18.156;2023-03-16T04:45:15;14.80;;;6.80;;
76552;SDS011;65395;53.168;18.156;2023-03-16T04:47:43;17.20;;;6.20;;
76552;SDS011;65395;53.168;18.156;2023-03-16T04:50:11;13.00;;;5.60;;
76552;SDS011;65395;53.168;18.156;2023-03-16T04:52:39;10.40;;;5.10;;
76552;SDS011;65395;53.168;18.156;2023-03-16T04:55:06;10.60;;;5.30;;
76552;SDS011;65395;53.168;18.156;2023-03-16T04:57:34;14.30;;;5.90;;
76552;SDS011;65395;53.168;18.156;2023-03-16T05:00:02;15.10;;;5.70;;
76552;SDS011;65395;53.168;18.156;2023-03-16T05:02:39;12.70;;;5.20;;
76552;SDS011;65395;53.168;18.156;2023-03-16T05:05:07;14.80;;;5.90;;
76552;SDS011;65395;53.168;18.156;2023-03-16T05:07:35;13.50;;;5.50;;
76552;SDS011;65395;53.168;18.156;2023-03-16T05:10:02;12.90;;;5.00;;
76552;SDS011;65395;53.168;18.156;2023-03-16T05:12:29;13.40;;;5.80;;
76552;SDS011;65395;53.168;18.156;2023-03-16T05:14:59;11.80;;;5.30;;
76552;SDS011;65395;53.168;18.156;2023-03-16T05:17:36;12.40;;;5.60;;
76552;SDS011;65395;53.168;18.156;2023-03-16T05:20:04;16.50;;;5.40;;
76552;SDS011;65395;53.168;18.156;2023-03-16T05:22:33;12.60;;;5.10;;
76552;SDS011;65395;53.168;18.156;2023-03-16T05:25:21;12.80;;;5.00;;
76552;SDS011;65395;53.168;18.156;2023-03-16T05:27:51;15.60;;;5.40;;
76552;SDS011;65395;53.168;18.156;2023-03-16T05:30:25;11.00;;;5.10;;
76552;SDS011;65395;53.168;18.156;2023-03-16T05:32:52;14.40;;;5.70;;
76552;SDS011;65395;53.168;18.156;2023-03-16T05:35:22;11.00;;;4.80;;
76552;SDS011;65395;53.168;18.156;2023-03-16T05:37:49;14.80;;;5.20;;
76552;SDS011;65395;53.168;18.156;2023-03-16T05:40:17;16.60;;;5.30;;
76552;SDS011;65395;53.168;18.156;2023-03-16T05:42:53;12.80;;;5.30;;
76552;SDS011;65395;53.168;18.156;2023-03-16T05:45:22;12.60;;;5.30;;
76552;SDS011;65395;53.168;18.156;2023-03-16T05:48:05;14.80;;;5.70;;
76552;SDS011;65395;53.168;18.156;2023-03-16T05:50:32;15.70;;;5.70;;
76552;SDS011;65395;53.168;18.156;2023-03-16T05:52:59;13.50;;;5.20;;
76552;SDS011;65395;53.168;18.156;2023-03-16T05:55:31;13.70;;;5.20;;
76552;SDS011;65395;53.168;18.156;2023-03-16T05:57:59;13.50;;;5.20;;
76552;SDS011;65395;53.168;18.156;2023-03-16T06:00:26;12.30;;;5.00;;
76552;SDS011;65395;53.168;18.156;2023-03-16T06:03:02;18.40;;;5.50;;
76552;SDS011;65395;53.168;18.156;2023-03-16T06:05:32;13.30;;;5.30;;
76552;SDS011;65395;53.168;18.156;2023-03-16T06:07:59;11.10;;;5.60;;
76552;SDS011;65395;53.168;18.156;2023-03-16T06:10:27;13.90;;;5.60;;
76552;SDS011;65395;53.168;18.156;2023-03-16T06:12:54;11.80;;;5.20;;
76552;SDS011;65395;53.168;18.156;2023-03-16T06:15:21;10.20;;;5.00;;
76552;SDS011;65395;53.168;18.156;2023-03-16T06:17:51;14.40;;;5.00;;
76552;SDS011;65395;53.168;18.156;2023-03-16T06:20:17;11.50;;;4.80;;
76552;SDS011;65395;53.168;18.156;2023-03-16T06:22:44;13.40;;;4.70;;
76552;SDS011;65395;53.168;18.156;2023-03-16T06:25:12;12.10;;;5.80;;
76552;SDS011;65395;53.168;18.156;2023-03-16T06:27:40;14.40;;;5.40;;
76552;SDS011;65395;53.168;18.156;2023-03-16T06:30:11;14.20;;;5.00;;
76552;SDS011;65395;53.168;18.156;2023-03-16T06:32:39;14.40;;;5.60;;
76552;SDS011;65395;53.168;18.156;2023-03-16T06:35:10;21.10;;;6.20;;
76552;SDS011;65395;53.168;18.156;2023-03-16T06:37:41;18.80;;;6.80;;
76552;SDS011;65395;53.168;18.156;2023-03-16T06:40:28;15.50;;;6.20;;
76552;SDS011;65395;53.168;18.156;2023-03-16T06:42:55;14.60;;;6.10;;
76552;SDS011;65395;53.168;18.156;2023-03-16T06:45:22;12.50;;;5.30;;
76552;SDS011;65395;53.168;18.156;2023-03-16T06:47:51;17.40;;;6.10;;
76552;SDS011;65395;53.168;18.156;2023-03-16T06:50:18;18.20;;;5.30;;
76552;SDS011;65395;53.168;18.156;2023-03-16T06:52:45;14.10;;;5.30;;
76552;SDS011;65395;53.168;18.156;2023-03-16T06:55:12;14.30;;;5.20;;
76552;SDS011;65395;53.168;18.156;2023-03-16T06:57:42;14.80;;;5.40;;
76552;SDS011;65395;53.168;18.156;2023-03-16T07:00:09;18.80;;;5.80;;
76552;SDS011;65395;53.168;18.156;2023-03-16T07:02:39;12.50;;;5.20;;
76552;SDS011;65395;53.168;18.156;2023-03-16T07:05:07;14.40;;;5.60;;
76552;SDS011;65395;53.168;18.156;2023-03-16T07:07:47;12.30;;;5.60;;
76552;SDS011;65395;53.168;18.156;2023-03-16T07:10:16;15.60;;;5.50;;
76552;SDS011;65395;53.168;18.156;2023-03-16T07:12:45;15.80;;;5.20;;
76552;SDS011;65395;53.168;18.156;2023-03-16T07:15:12;15.00;;;5.10;;
76552;SDS011;65395;53.168;18.156;2023-03-16T07:17:40;13.20;;;5.00;;
76552;SDS011;65395;53.168;18.156;2023-03-16T07:20:09;10.90;;;4.60;;
76552;SDS011;65395;53.168;18.156;2023-03-16T07:22:38;14.30;;;4.90;;
76552;SDS011;65395;53.168;18.156;2023-03-16T07:25:07;19.10;;;4.90;;
76552;SDS011;65395;53.168;18.156;2023-03-16T07:27:38;11.20;;;4.10;;
76552;SDS011;65395;53.168;18.156;2023-03-16T07:30:07;12.60;;;4.00;;
76552;SDS011;65395;53.168;18.156;2023-03-16T07:32:40;12.60;;;4.10;;
76552;SDS011;65395;53.168;18.156;2023-03-16T07:35:09;12.60;;;3.90;;
76552;SDS011;65395;53.168;18.156;2023-03-16T07:37:38;12.70;;;3.70;;
76552;SDS011;65395;53.168;18.156;2023-03-16T07:40:05;9.90;;;3.60;;
76552;SDS011;65395;53.168;18.156;2023-03-16T07:42:35;9.40;;;3.20;;
76552;SDS011;65395;53.168;18.156;2023-03-16T07:45:08;8.40;;;3.00;;
76552;SDS011;65395;53.168;18.156;2023-03-16T07:47:36;11.50;;;3.40;;
76552;SDS011;65395;53.168;18.156;2023-03-16T07:50:10;11.30;;;3.10;;
76552;SDS011;65395;53.168;18.156;2023-03-16T07:52:42;8.90;;;3.10;;
76552;SDS011;65395;53.168;18.156;2023-03-16T07:55:10;8.80;;;2.60;;
76552;SDS011;65395;53.168;18.156;2023-03-16T07:57:38;12.50;;;3.00;;
76552;SDS011;65395;53.168;18.156;2023-03-16T08:00:09;10.00;;;2.90;;
76552;SDS011;65395;53.168;18.156;2023-03-16T08:02:40;7.60;;;2.90;;
76552;SDS011;65395;53.168;18.156;2023-03-16T08:05:09;8.70;;;2.80;;
76552;SDS011;65395;53.168;18.156;2023-03-16T08:07:37;8.50;;;2.60;;
76552;SDS011;65395;53.168;18.156;2023-03-16T08:10:11;9.50;;;2.80;;
76552;SDS011;65395;53.168;18.156;2023-03-16T08:12:43;10.90;;;3.00;;
76552;SDS011;65395;53.168;18.156;2023-03-16T08:15:11;5.90;;;2.70;;
76552;SDS011;65395;53.168;18.156;2023-03-16T08:17:41;9.10;;;3.10;;
76552;SDS011;65395;53.168;18.156;2023-03-16T08:20:12;8.50;;;2.50;;
76552;SDS011;65395;53.168;18.156;2023-03-16T08:22:42;9.30;;;2.60;;
76552;SDS011;65395;53.168;18.156;2023-03-16T08:25:13;6.90;;;2.80;;
76552;SDS011;65395;53.168;18.156;2023-03-16T08:27:48;8.90;;;3.30;;
76552;SDS011;65395;53.168;18.156;2023-03-16T08:30:17;9.90;;;3.40;;
76552;SDS011;65395;53.168;18.156;2023-03-16T08:32:49;6.80;;;2.80;;
76552;SDS011;65395;53.168;18.156;2023-03-16T08:35:17;7.80;;;2.50;;
76552;SDS011;65395;53.168;18.156;2023-03-16T08:37:45;8.40;;;3.00;;
76552;SDS011;65395;53.168;18.156;2023-03-16T08:40:12;9.30;;;3.00;;
76552;SDS011;65395;53.168;18.156;2023-03-16T08:42:42;7.80;;;2.60;;
76552;SDS011;65395;53.168;18.156;2023-03-16T08:45:12;8.40;;;2.50;;
76552;SDS011;65395;53.168;18.156;2023-03-16T08:47:40;6.10;;;2.60;;
76552;SDS011;65395;53.168;18.156;2023-03-16T08:50:10;8.60;;;2.20;;
76552;SDS011;65395;53.168;18.156;2023-03-16T08:52:39;11.10;;;2.90;;
76552;SDS011;65395;53.168;18.156;2023-03-16T08:55:07;8.20;;;2.40;;
76552;SDS011;65395;53.168;18.156;2023-03-16T08:57:36;6.00;;;2.10;;
76552;SDS011;65395;53.168;18.156;2023-03-16T09:00:06;9.10;;;2.00;;
76552;SDS011;65395;53.168;18.156;2023-03-16T09:02:40;10.20;;;2.80;;
76552;SDS011;65395;53.168;18.156;2023-03-16T09:05:09;7.80;;;2.10;;
76552;SDS011;65395;53.168;18.156;2023-03-16T09:07:38;7.50;;;2.50;;
76552;SDS011;65395;53.168;18.156;2023-03-16T09:10:05;5.30;;;2.20;;
76552;SDS011;65395;53.168;18.156;2023-03-16T09:12:34;6.80;;;2.20;;
76552;SDS011;65395;53.168;18.156;2023-03-16T09:15:04;6.70;;;2.20;;
76552;SDS011;65395;53.168;18.156;2023-03-16T09:17:32;6.70;;;1.90;;
76552;SDS011;65395;53.168;18.156;2023-03-16T09:20:00;6.50;;;2.30;;
76552;SDS011;65395;53.168;18.156;2023-03-16T09:22:31;7.30;;;2.30;;
76552;SDS011;65395;53.168;18.156;2023-03-16T09:24:58;5.70;;;2.20;;
76552;SDS011;65395;53.168;18.156;2023-03-16T09:27:27;6.70;;;2.10;;
76552;SDS011;65395;53.168;18.156;2023-03-16T09:29:58;6.70;;;2.30;;
76552;SDS011;65395;53.168;18.156;2023-03-16T09:32:28;6.10;;;2.00;;
76552;SDS011;65395;53.168;18.156;2023-03-16T09:34:56;5.40;;;2.40;;
76552;SDS011;65395;53.168;18.156;2023-03-16T09:37:24;6.50;;;2.00;;
76552;SDS011;65395;53.168;18.156;2023-03-16T09:39:52;5.80;;;2.50;;
76552;SDS011;65395;53.168;18.156;2023-03-16T09:42:29;6.10;;;2.50;;
76552;SDS011;65395;53.168;18.156;2023-03-16T09:48:01;7.20;;;2.50;;
76552;SDS011;65395;53.168;18.156;2023-03-16T09:50:32;5.60;;;2.20;;
76552;SDS011;65395;53.168;18.156;2023-03-16T09:55:59;5.60;;;2.50;;
76552;SDS011;65395;53.168;18.156;2023-03-16T09:58:29;7.20;;;2.80;;
76552;SDS011;65395;53.168;18.156;2023-03-16T10:01:02;5.50;;;2.30;;
76552;SDS011;65395;53.168;18.156;2023-03-16T10:03:50;5.80;;;2.30;;
76552;SDS011;65395;53.168;18.156;2023-03-16T10:06:40;6.60;;;3.10;;
76552;SDS011;65395;53.168;18.156;2023-03-16T10:09:16;3.40;;;2.10;;
76552;SDS011;65395;53.168;18.156;2023-03-16T10:11:58;8.30;;;2.40;;
76552;SDS011;65395;53.168;18.156;2023-03-16T10:14:32;6.50;;;3.00;;
76552;SDS011;65395;53.168;18.156;2023-03-16T10:17:20;7.50;;;2.10;;
76552;SDS011;65395;53.168;18.156;2023-03-16T10:20:00;7.00;;;2.60;;
76552;SDS011;65395;53.168;18.156;2023-03-16T10:22:37;5.20;;;2.50;;
76552;SDS011;65395;53.168;18.156;2023-03-16T10:25:11;4.80;;;2.40;;
76552;SDS011;65395;53.168;18.156;2023-03-16T10:27:47;3.90;;;2.10;;
76552;SDS011;65395;53.168;18.156;2023-03-16T10:32:56;5.20;;;2.20;;
76552;SDS011;65395;53.168;18.156;2023-03-16T10:40:56;5.50;;;2.20;;
76552;SDS011;65395;53.168;18.156;2023-03-16T10:43:23;6.30;;;2.30;;
76552;SDS011;65395;53.168;18.156;2023-03-16T10:45:57;5.60;;;2.00;;
76552;SDS011;65395;53.168;18.156;2023-03-16T10:48:29;7.20;;;2.50;;
76552;SDS011;65395;53.168;18.156;2023-03-16T10:50:58;3.90;;;1.60;;
76552;SDS011;65395;53.168;18.156;2023-03-16T10:53:30;3.70;;;1.70;;
76552;SDS011;65395;53.168;18.156;2023-03-16T10:56:08;6.00;;;2.00;;
76552;SDS011;65395;53.168;18.156;2023-03-16T10:58:41;3.50;;;1.50;;
76552;SDS011;65395;53.168;18.156;2023-03-16T11:03:50;3.30;;;1.30;;
76552;SDS011;65395;53.168;18.156;2023-03-16T11:06:24;4.20;;;1.60;;
76552;SDS011;65395;53.168;18.156;2023-03-16T11:09:04;6.60;;;1.70;;
76552;SDS011;65395;53.168;18.156;2023-03-16T11:11:35;2.70;;;1.40;;
76552;SDS011;65395;53.168;18.156;2023-03-16T11:14:03;2.20;;;1.30;;
76552;SDS011;65395;53.168;18.156;2023-03-16T11:16:38;2.60;;;1.30;;
76552;SDS011;65395;53.168;18.156;2023-03-16T11:19:13;3.00;;;1.30;;
76552;SDS011;65395;53.168;18.156;2023-03-16T11:21:56;2.60;;;1.50;;
76552;SDS011;65395;53.168;18.156;2023-03-16T11:24:38;4.20;;;1.40;;
76552;SDS011;65395;53.168;18.156;2023-03-16T11:27:23;7.00;;;1.30;;
76552;SDS011;65395;53.168;18.156;2023-03-16T11:30:00;5.50;;;1.40;;
76552;SDS011;65395;53.168;18.156;2023-03-16T11:32:41;3.00;;;1.20;;
76552;SDS011;65395;53.168;18.156;2023-03-16T11:35:14;3.00;;;1.30;;
76552;SDS011;65395;53.168;18.156;2023-03-16T11:37:59;3.20;;;1.30;;
76552;SDS011;65395;53.168;18.156;2023-03-16T11:40:37;6.40;;;1.50;;
76552;SDS011;65395;53.168;18.156;2023-03-16T11:46:20;3.10;;;1.40;;
76552;SDS011;65395;53.168;18.156;2023-03-16T11:52:12;3.40;;;1.40;;
76552;SDS011;65395;53.168;18.156;2023-03-16T12:03:19;2.60;;;1.20;;
76552;SDS011;65395;53.168;18.156;2023-03-16T12:09:03;3.40;;;1.30;;
76552;SDS011;65395;53.168;18.156;2023-03-16T12:14:52;2.10;;;1.20;;
76552;SDS011;65395;53.168;18.156;2023-03-16T12:17:34;2.30;;;1.00;;
76552;SDS011;65395;53.168;18.156;2023-03-16T12:20:04;1.90;;;1.00;;
76552;SDS011;65395;53.168;18.156;2023-03-16T12:22:43;1.90;;;1.00;;
76552;SDS011;65395;53.168;18.156;2023-03-16T12:25:17;2.30;;;1.10;;
76552;SDS011;65395;53.168;18.156;2023-03-16T12:27:48;3.30;;;1.30;;
76552;SDS011;65395;53.168;18.156;2023-03-16T12:30:27;2.40;;;1.10;;
76552;SDS011;65395;53.168;18.156;2023-03-16T12:33:09;5.00;;;1.80;;
76552;SDS011;65395;53.168;18.156;2023-03-16T12:35:48;4.80;;;1.40;;
76552;SDS011;65395;53.168;18.156;2023-03-16T12:38:32;2.90;;;1.50;;
76552;SDS011;65395;53.168;18.156;2023-03-16T12:41:13;3.10;;;1.40;;
76552;SDS011;65395;53.168;18.156;2023-03-16T12:46:51;3.50;;;1.80;;
76552;SDS011;65395;53.168;18.156;2023-03-16T12:49:25;3.10;;;1.30;;
76552;SDS011;65395;53.168;18.156;2023-03-16T12:51:59;3.10;;;1.40;;
76552;SDS011;65395;53.168;18.156;2023-03-16T12:54:29;3.60;;;1.10;;
76552;SDS011;65395;53.168;18.156;2023-03-16T12:57:00;1.60;;;1.20;;
76552;SDS011;65395;53.168;18.156;2023-03-16T12:59:38;4.80;;;1.30;;
76552;SDS011;65395;53.168;18.156;2023-03-16T13:02:11;3.60;;;1.50;;
76552;SDS011;65395;53.168;18.156;2023-03-16T13:04:56;2.70;;;1.20;;
76552;SDS011;65395;53.168;18.156;2023-03-16T13:07:28;3.60;;;1.10;;
76552;SDS011;65395;53.168;18.156;2023-03-16T13:10:00;3.20;;;1.20;;
76552;SDS011;65395;53.168;18.156;2023-03-16T13:12:36;3.60;;;1.10;;
76552;SDS011;65395;53.168;18.156;2023-03-16T13:20:54;4.00;;;1.20;;
76552;SDS011;65395;53.168;18.156;2023-03-16T13:23:26;2.40;;;1.10;;
76552;SDS011;65395;53.168;18.156;2023-03-16T13:26:13;1.90;;;1.00;;
76552;SDS011;65395;53.168;18.156;2023-03-16T13:28:43;3.60;;;1.10;;
76552;SDS011;65395;53.168;18.156;2023-03-16T13:31:21;2.20;;;0.90;;
76552;SDS011;65395;53.168;18.156;2023-03-16T13:33:54;3.70;;;1.20;;
76552;SDS011;65395;53.168;18.156;2023-03-16T13:36:26;3.00;;;1.10;;
76552;SDS011;65395;53.168;18.156;2023-03-16T13:38:56;4.10;;;0.90;;
76552;SDS011;65395;53.168;18.156;2023-03-16T13:41:30;2.90;;;0.80;;
76552;SDS011;65395;53.168;18.156;2023-03-16T13:43:59;2.70;;;0.80;;
76552;SDS011;65395;53.168;18.156;2023-03-16T13:46:27;3.30;;;0.90;;
76552;SDS011;65395;53.168;18.156;2023-03-16T13:48:57;2.20;;;0.90;;
76552;SDS011;65395;53.168;18.156;2023-03-16T13:51:26;2.80;;;0.80;;
76552;SDS011;65395;53.168;18.156;2023-03-16T13:53:56;3.00;;;1.00;;
76552;SDS011;65395;53.168;18.156;2023-03-16T13:56:24;2.70;;;1.10;;
76552;SDS011;65395;53.168;18.156;2023-03-16T13:58:55;3.00;;;0.80;;
76552;SDS011;65395;53.168;18.156;2023-03-16T14:01:25;2.20;;;0.80;;
76552;SDS011;65395;53.168;18.156;2023-03-16T14:03:56;2.60;;;1.00;;
76552;SDS011;65395;53.168;18.156;2023-03-16T14:06:25;2.60;;;0.80;;
76552;SDS011;65395;53.168;18.156;2023-03-16T14:08:56;2.80;;;0.90;;
76552;SDS011;65395;53.168;18.156;2023-03-16T14:11:26;4.60;;;1.60;;
76552;SDS011;65395;53.168;18.156;2023-03-16T14:13:54;2.30;;;1.00;;
76552;SDS011;65395;53.168;18.156;2023-03-16T14:16:24;2.60;;;1.20;;
76552;SDS011;65395;53.168;18.156;2023-03-16T14:18:57;2.50;;;1.20;;
76552;SDS011;65395;53.168;18.156;2023-03-16T14:21:29;4.40;;;1.20;;
76552;SDS011;65395;53.168;18.156;2023-03-16T14:24:03;6.70;;;1.40;;
76552;SDS011;65395;53.168;18.156;2023-03-16T14:26:41;3.10;;;1.10;;
76552;SDS011;65395;53.168;18.156;2023-03-16T14:29:18;2.00;;;0.90;;
76552;SDS011;65395;53.168;18.156;2023-03-16T14:31:51;1.60;;;1.00;;
76552;SDS011;65395;53.168;18.156;2023-03-16T14:34:19;7.60;;;1.20;;
76552;SDS011;65395;53.168;18.156;2023-03-16T14:39:34;3.90;;;1.30;;
76552;SDS011;65395;53.168;18.156;2023-03-16T14:42:02;4.60;;;0.90;;
76552;SDS011;65395;53.168;18.156;2023-03-16T14:44:31;3.20;;;1.00;;
76552;SDS011;65395;53.168;18.156;2023-03-16T14:47:01;3.00;;;1.20;;
76552;SDS011;65395;53.168;18.156;2023-03-16T14:49:36;8.10;;;1.10;;
76552;SDS011;65395;53.168;18.156;2023-03-16T14:52:07;4.00;;;1.00;;
76552;SDS011;65395;53.168;18.156;2023-03-16T14:54:49;2.10;;;1.20;;
76552;SDS011;65395;53.168;18.156;2023-03-16T14:57:17;4.90;;;1.00;;
76552;SDS011;65395;53.168;18.156;2023-03-16T14:59:44;3.20;;;1.40;;
76552;SDS011;65395;53.168;18.156;2023-03-16T15:02:14;4.00;;;1.70;;
76552;SDS011;65395;53.168;18.156;2023-03-16T15:04:43;5.90;;;1.80;;
76552;SDS011;65395;53.168;18.156;2023-03-16T15:07:20;4.60;;;1.80;;
76552;SDS011;65395;53.168;18.156;2023-03-16T15:09:51;3.20;;;0.90;;
76552;SDS011;65395;53.168;18.156;2023-03-16T15:12:20;2.00;;;1.00;;
76552;SDS011;65395;53.168;18.156;2023-03-16T15:14:47;2.00;;;0.80;;
76552;SDS011;65395;53.168;18.156;2023-03-16T15:17:24;3.80;;;0.90;;
76552;SDS011;65395;53.168;18.156;2023-03-16T15:19:52;4.90;;;2.00;;
76552;SDS011;65395;53.168;18.156;2023-03-16T15:22:23;4.10;;;1.90;;
76552;SDS011;65395;53.168;18.156;2023-03-16T15:24:54;5.20;;;2.20;;
76552;SDS011;65395;53.168;18.156;2023-03-16T15:27:24;2.60;;;1.30;;
76552;SDS011;65395;53.168;18.156;2023-03-16T15:29:56;3.20;;;1.20;;
76552;SDS011;65395;53.168;18.156;2023-03-16T15:32:24;3.20;;;1.40;;
76552;SDS011;65395;53.168;18.156;2023-03-16T15:34:51;5.10;;;2.00;;
76552;SDS011;65395;53.168;18.156;2023-03-16T15:37:17;3.90;;;0.90;;
76552;SDS011;65395;53.168;18.156;2023-03-16T15:39:45;2.50;;;1.20;;
76552;SDS011;65395;53.168;18.156;2023-03-16T15:42:13;2.90;;;1.50;;
76552;SDS011;65395;53.168;18.156;2023-03-16T15:44:42;4.20;;;1.20;;